Etusivu
METAR-TAF:

METAR-TAF

Lentoasemat :

Zihuatanejo, Meksiko

Leveyspiiri: 17-36N, Pituuspiiri: 101-28W, korkeus merenpinnasta: 6 m

Tämänhetkinen sää

Tämä raportti tehtiin 10 tuntia ja 16 minuuttia sitten, kello 02.41 UTC
tyyntä
Lämpötila 26°C
Kosteus 70%
Ilmanpaine 1011 hPa
Näkyvyys: 11.3 km
selkeää

METAR: MMZH 290241Z 00000KT 7SM SKC 26/20 A2984 RMK SLP099 52020 903 HZY

Aika: 06:57 (12:57 UTC)

Sääennuste

Tämä raportti tehtiin 8 tuntia ja 38 minuuttia sitten, kello 04.19 UTC
Ennuste voimassa 29. päivästä klo 06 UTC - 30. päivään klo 06 UTC
Tuuli kn pohjoisesta
Näkyvyys: 10 km
selkeää
Tulossa
29. päivästä klo 17 UTC - 29. päivään klo 18 UTC
Tuuli 10 kn lännestä/lounaasta
From 30. päivästä klo 0000 UTC
Tuuli kn pohjoisesta
Näkyvyys: 10 km
selkeää

TAF: MMZH 290419Z 2906/3006 00000KT P6SM SKC BECMG 2917/2918 24010KT FM300000 00000KT P6SM SKC

Säähavainnot ja -ennusteet yli 4000 lentoasemalta (METAR- ja TAF-raportit).

Käytössä olevat sääasemat on merkitty karttaan keltaisilla ja punaisilla pisteillä.

Aseta hiiri pisteen päälle nähdäksesi sääaseman nimen.

Klikkaa sitten nähdäksesi säähavainnot ja -ennusteet.

Kartan vaihtaminen: klikkaa mustalla rastilla varustettuja vihreitä pisteitä, niin voit zoomata sisään; viivalla varustettua vihreää pistettä, niin voit zoomata ulos tai vihreitä nuolia, niin pääset viereisille kartoille.


METAR-TAF: